Time;durP1;ratioP1;P1;durP2;ratioP2;P2;SDS_P1;SDS_P2;PMS_P1;PMS_P2;Temp;Humidity;BMP_temperature;BMP_pressure;BME280_temperature;BME280_humidity;BME280_pressure;Samples;Min_cycle;Max_cycle;Signal;HPM_P1;HPM_P2
2021/04/28 00:00:32;;;;;;;10.90;6.23;;;10.90;40.30;;;11.41;34.09;96446.16;5065280;28;20054;-47
2021/04/28 00:03:10;;;;;;;;;;;10.90;40.30;;;11.39;34.03;96452.69;5063780;28;20059;-44
2021/04/28 00:05:39;;;;;;;9.60;5.57;;;10.90;41.50;;;11.40;34.38;96446.38;5063599;28;20230;-45
2021/04/28 00:08:08;;;;;;;9.10;5.90;;;10.80;40.40;;;11.37;34.37;96444.09;5065139;28;20056;-45
2021/04/28 00:10:40;;;;;;;9.83;7.23;;;10.80;40.30;;;11.32;34.48;96444.69;5064966;28;20059;-45
2021/04/28 00:13:13;;;;;;;10.03;5.17;;;10.80;40.40;;;11.31;34.64;96452.84;5063077;28;20052;-46
2021/04/28 00:15:50;;;;;;;8.87;5.40;;;10.70;40.90;;;11.23;34.59;96446.66;5064436;28;20052;-45
2021/04/28 00:18:20;;;;;;;8.27;5.37;;;10.60;40.80;;;11.20;34.51;96446.22;5063955;28;20130;-45
2021/04/28 00:20:49;;;;;;;9.30;5.17;;;10.60;40.90;;;11.17;34.72;96439.44;5064885;28;20049;-44
2021/04/28 00:23:17;;;;;;;9.87;6.43;;;10.60;41.00;;;11.15;34.56;96440.66;5063602;28;20252;-44
2021/04/28 00:25:47;;;;;;;7.97;6.10;;;10.50;41.00;;;11.10;34.69;96441.22;5063768;28;20329;-46
2021/04/28 00:28:15;;;;;;;12.07;6.43;;;10.40;41.20;;;11.07;34.91;96433.66;5063966;28;20048;-44
2021/04/28 00:30:44;;;;;;;9.53;5.43;;;10.40;41.30;;;11.03;35.01;96438.53;5064268;28;20061;-44
2021/04/28 00:33:13;;;;;;;9.97;6.20;;;10.40;41.30;;;11.00;34.75;96430.09;5063605;28;20048;-46
2021/04/28 00:35:42;;;;;;;8.80;6.10;;;10.40;41.40;;;10.97;34.96;96425.16;5064339;28;20346;-45
2021/04/28 00:38:10;;;;;;;8.77;6.03;;;10.30;41.40;;;10.93;34.79;96424.72;5063523;28;20067;-44
2021/04/28 00:40:41;;;;;;;7.87;5.23;;;10.40;41.30;;;10.93;34.98;96438.03;5062033;28;20052;-43
2021/04/28 00:43:09;;;;;;;8.87;5.17;;;10.40;41.20;;;10.92;34.85;96423.06;5064327;28;20501;-44
2021/04/28 00:45:39;;;;;;;8.87;5.37;;;10.40;41.10;;;10.87;34.90;96422.81;5045912;28;20062;-44
2021/04/28 00:48:09;;;;;;;8.90;5.43;;;10.30;41.40;;;10.80;34.86;96417.47;5063151;28;20219;-45
2021/04/28 00:50:50;;;;;;;8.00;6.10;;;10.20;41.40;;;10.81;35.01;96416.41;5065587;28;20058;-57
2021/04/28 00:53:22;;;;;;;9.50;5.80;;;10.30;42.20;;;10.81;35.00;96416.41;5048827;28;20052;-57
2021/04/28 00:55:52;;;;;;;8.43;5.67;;;10.20;41.40;;;10.81;35.17;96412.94;5067380;28;20044;-57
2021/04/28 00:58:22;;;;;;;8.17;5.80;;;10.30;41.60;;;10.81;35.19;96405.78;5066571;28;20056;-58
2021/04/28 01:00:53;;;;;;;7.33;5.13;;;10.30;41.40;;;10.80;35.24;96412.13;5068560;28;20347;-56
2021/04/28 01:03:28;;;;;;;7.60;4.77;;;10.30;41.70;;;10.78;35.35;96405.38;5067450;28;20056;-57
2021/04/28 01:06:51;;;;;;;7.20;5.00;;;10.20;41.60;;;10.81;35.47;96402.31;5067346;28;20350;-56
2021/04/28 01:09:22;;;;;;;8.87;5.47;;;10.40;41.50;;;10.87;35.13;96401.53;5065679;28;20074;-57
2021/04/28 01:11:51;;;;;;;14.70;6.97;;;10.60;40.60;;;10.94;35.00;96399.75;5082027;28;20060;-57
2021/04/28 01:14:21;;;;;;;8.17;5.67;;;10.70;40.30;;;11.03;34.94;96398.59;5067872;28;20068;-57
2021/04/28 01:16:49;;;;;;;7.70;5.63;;;10.80;40.10;;;11.07;35.22;96400.84;5082985;28;20044;-55
2021/04/28 01:19:19;;;;;;;10.40;6.10;;;10.90;40.10;;;11.11;35.29;96391.44;5082536;28;20235;-58
2021/04/28 01:21:53;;;;;;;9.90;5.50;;;10.90;40.10;;;11.14;35.28;96389.22;5066523;28;20058;-58
2021/04/28 01:24:22;;;;;;;8.37;5.30;;;11.00;39.90;;;11.19;34.71;96394.78;5068274;28;20055;-59
2021/04/28 01:26:54;;;;;;;12.07;6.13;;;11.00;39.70;;;11.25;34.57;96400.38;5068110;28;20256;-56
2021/04/28 01:29:25;;;;;;;9.77;5.67;;;11.10;39.70;;;11.27;35.03;96399.13;5083229;28;20063;-56
2021/04/28 01:31:58;;;;;;;8.40;6.27;;;11.00;39.70;;;11.30;34.87;96401.44;5066712;28;20655;-58
2021/04/28 01:34:28;;;;;;;7.28;5.70;;;11.00;39.70;;;11.29;34.50;96399.75;5065645;28;20052;-59
2021/04/28 01:36:57;;;;;;;7.97;5.93;;;11.00;39.90;;;11.29;34.58;96399.75;5068154;28;20057;-58
2021/04/28 01:39:26;;;;;;;9.37;5.47;;;11.00;40.00;;;11.27;34.99;96401.00;5066810;28;20239;-55
2021/04/28 01:41:56;;;;;;;9.83;6.10;;;10.90;40.20;;;11.22;35.18;96401.56;5069061;28;20350;-56
2021/04/28 01:44:26;;;;;;;10.17;5.57;;;10.80;40.70;;;11.15;35.44;96396.19;5083663;28;20049;-56
2021/04/28 01:46:55;;;;;;;12.30;6.00;;;10.70;41.40;;;11.07;35.34;96398.19;5068309;28;20067;-57
2021/04/28 01:49:25;;;;;;;10.10;5.67;;;10.50;41.80;;;11.00;35.48;96398.13;5068881;28;20565;-58
2021/04/28 01:51:55;;;;;;;8.30;5.47;;;10.50;41.80;;;10.97;35.14;96402.03;5067631;28;20385;-59
2021/04/28 01:54:25;;;;;;;8.47;5.27;;;10.40;41.80;;;10.90;35.37;96395.81;5064032;28;20047;-58
2021/04/28 01:56:54;;;;;;;8.73;5.13;;;10.30;41.90;;;10.83;35.47;96401.06;5066824;28;20056;-58
2021/04/28 01:59:32;;;;;;;8.60;5.17;;;10.20;42.10;;;10.78;35.62;96400.84;5067961;28;20055;-58
2021/04/28 02:02:05;;;;;;;8.13;5.30;;;10.10;42.40;;;10.73;35.67;96405.09;5085528;28;20051;-58
2021/04/28 02:04:43;;;;;;;8.43;5.77;;;10.00;42.40;;;10.66;35.61;96396.22;5064445;28;20055;-58
2021/04/28 02:07:14;;;;;;;10.00;5.83;;;10.00;42.70;;;10.61;35.89;96402.97;5080027;28;20083;-57
2021/04/28 02:09:43;;;;;;;9.60;5.03;;;9.90;43.10;;;10.54;35.93;96393.28;5083106;28;20052;-57
2021/04/28 02:12:19;;;;;;;8.37;6.43;;;9.90;43.10;;;10.50;36.02;96392.00;5065211;28;20350;-58
2021/04/28 02:14:50;;;;;;;9.27;5.83;;;9.90;43.40;;;10.46;36.29;96396.06;5065775;28;20052;-58
2021/04/28 02:17:26;;;;;;;9.43;5.83;;;9.80;43.50;;;10.43;36.19;96391.97;5067137;28;20067;-58
2021/04/28 02:19:59;;;;;;;7.60;6.37;;;9.80;43.30;;;10.40;36.25;96397.66;5066896;28;20055;-59
2021/04/28 02:22:32;;;;;;;7.47;5.73;;;9.80;43.30;;;10.36;36.44;96388.41;5064070;28;20044;-58
2021/04/28 02:25:10;;;;;;;13.60;5.70;;;9.70;43.80;;;10.28;36.47;96386.66;5066671;28;20063;-58
2021/04/28 02:27:56;;;;;;;9.47;6.23;;;9.60;44.10;;;10.19;36.70;96379.81;5065979;28;20054;-58
2021/04/28 02:30:27;;;;;;;9.43;5.77;;;9.50;44.30;;;10.14;36.86;96385.72;5068110;28;20059;-58
2021/04/28 02:32:56;;;;;;;9.13;6.47;;;9.50;44.50;;;10.10;36.79;96379.13;5067303;28;20060;-58
2021/04/28 02:35:43;;;;;;;10.83;6.03;;;9.40;44.20;;;10.04;36.88;96372.72;5069748;28;20039;-58
2021/04/28 02:38:47;;;;;;;7.53;5.67;;;9.30;44.70;;;10.01;37.35;96380.25;5076738;28;20059;-57
2021/04/28 02:41:24;;;;;;;9.80;6.80;;;9.30;45.50;;;9.98;37.02;96383.28;5081056;28;20350;-58
2021/04/28 02:43:54;;;;;;;9.57;6.53;;;9.30;44.60;;;9.99;37.13;96379.63;5066798;28;20354;-58
2021/04/28 02:46:28;;;;;;;8.73;6.13;;;9.30;44.80;;;9.96;37.23;96378.16;5064564;28;20048;-58
2021/04/28 02:48:59;;;;;;;10.40;6.17;;;9.30;45.00;;;9.94;37.33;96374.84;5065857;28;20060;-59
2021/04/28 02:51:39;;;;;;;8.97;6.00;;;9.30;44.70;;;9.92;37.35;96371.56;5086095;28;20051;-57
2021/04/28 02:54:38;;;;;;;8.17;6.43;;;9.30;44.90;;;9.90;37.22;96373.59;5062394;28;20060;-58
2021/04/28 02:57:09;;;;;;;8.27;5.80;;;9.20;45.00;;;9.86;37.66;96375.78;5081294;28;20067;-57
2021/04/28 02:59:37;;;;;;;7.67;6.70;;;9.20;45.10;;;9.81;37.54;96378.22;5066476;28;20067;-58
2021/04/28 03:02:08;;;;;;;11.50;5.63;;;9.10;45.20;;;9.78;37.68;96370.59;5066878;28;20050;-58
2021/04/28 03:04:40;;;;;;;7.40;5.75;;;9.10;45.30;;;9.75;37.64;96370.13;5079699;28;20357;-58
2021/04/28 03:07:38;;;;;;;10.67;5.60;;;9.10;44.80;;;9.76;37.50;96366.47;5063470;28;20067;-60
2021/04/28 03:10:08;;;;;;;9.47;5.97;;;9.20;44.30;;;9.79;37.37;96369.59;5081934;28;20052;-58
2021/04/28 03:12:40;;;;;;;8.70;5.47;;;9.20;44.30;;;9.78;37.37;96367.13;5064536;28;20060;-59
2021/04/28 03:15:14;;;;;;;8.10;5.60;;;9.20;45.30;;;9.74;37.81;96369.31;5079440;28;20048;-59
2021/04/28 03:17:51;;;;;;;9.27;5.63;;;9.00;44.90;;;9.69;37.52;96366.41;5066067;28;20048;-59
2021/04/28 03:20:28;;;;;;;8.10;5.63;;;9.00;45.00;;;9.67;37.73;96363.09;5065232;28;20036;-59
2021/04/28 03:22:57;;;;;;;9.40;6.23;;;9.00;45.00;;;9.65;37.51;96368.63;5079775;28;20215;-59
2021/04/28 03:25:25;;;;;;;8.23;5.73;;;9.00;45.00;;;9.64;37.68;96359.00;5064663;28;20061;-59
2021/04/28 03:27:57;;;;;;;7.97;6.13;;;9.00;45.10;;;9.63;37.74;96357.38;5065845;28;20066;-58
2021/04/28 03:30:25;;;;;;;8.00;6.10;;;9.00;45.20;;;9.61;37.54;96355.88;5066215;28;20052;-59
2021/04/28 03:32:54;;;;;;;11.00;6.27;;;9.00;45.10;;;9.56;37.83;96352.97;5065575;28;20056;-59
2021/04/28 03:35:59;;;;;;;10.53;6.97;;;8.90;45.20;;;9.53;37.71;96356.81;5062788;28;20078;-59
2021/04/28 03:38:37;;;;;;;12.17;6.97;;;8.90;45.50;;;9.51;37.76;96361.50;5065673;28;20044;-60
2021/04/28 03:41:07;;;;;;;10.70;6.70;;;8.80;45.40;;;9.47;38.23;96357.56;5063543;28;20449;-59
2021/04/28 03:43:36;;;;;;;8.23;6.23;;;8.80;45.60;;;9.44;38.23;96365.88;5064087;28;20058;-59
2021/04/28 03:46:04;;;;;;;9.40;6.23;;;8.80;45.90;;;9.41;38.59;96356.47;5064568;28;20052;-59
2021/04/28 03:48:51;;;;;;;9.83;5.97;;;8.80;45.60;;;9.42;38.50;96360.78;5064319;28;20040;-59
2021/04/28 03:51:22;;;;;;;8.20;6.27;;;8.90;45.20;;;9.50;38.37;96369.63;5065659;28;20064;-59
2021/04/28 03:54:11;;;;;;;9.33;6.87;;;9.00;45.40;;;9.51;38.00;96363.31;5033273;28;20064;-59
2021/04/28 03:56:41;;;;;;;7.80;6.90;;;8.90;45.50;;;9.45;38.16;96364.88;5064034;28;20238;-59
2021/04/28 03:59:10;;;;;;;9.53;6.20;;;8.80;45.70;;;9.43;38.25;96369.56;5065336;28;20053;-58
2021/04/28 04:01:41;;;;;;;10.47;6.77;;;8.80;45.80;;;9.39;38.43;96374.41;5065349;28;20055;-59
2021/04/28 04:04:11;;;;;;;9.63;5.77;;;8.70;46.30;;;9.33;38.83;96367.19;5063877;28;20346;-59
2021/04/28 04:07:14;;;;;;;7.77;5.20;;;8.70;46.30;;;9.29;38.70;96365.91;5052511;28;20060;-59
2021/04/28 04:10:07;;;;;;;12.97;6.70;;;8.80;45.80;;;9.33;38.91;96377.00;5065327;28;20040;-59
2021/04/28 04:12:35;;;;;;;11.63;7.27;;;8.80;45.80;;;9.37;38.75;96370.31;5064064;28;20063;-61
2021/04/28 04:15:07;;;;;;;9.90;6.27;;;8.80;45.70;;;9.35;38.42;96369.69;5081447;28;20052;-61
2021/04/28 04:17:36;;;;;;;8.33;6.07;;;8.70;46.30;;;9.33;38.87;96374.34;5080524;28;20052;-61
2021/04/28 04:20:18;;;;;;;9.87;7.20;;;8.70;46.20;;;9.31;38.67;96371.88;5064881;28;20040;-61
2021/04/28 04:22:53;;;;;;;11.07;6.63;;;8.70;46.40;;;9.31;38.74;96373.72;5065523;28;20067;-61
2021/04/28 04:25:44;;;;;;;8.33;5.43;;;8.70;46.30;;;9.29;39.22;96383.69;5058361;28;20068;-61
2021/04/28 04:28:32;;;;;;;9.27;6.33;;;8.70;46.30;;;9.28;39.02;96374.88;5083825;28;20060;-61
2021/04/28 04:31:03;;;;;;;13.40;7.80;;;8.70;46.50;;;9.26;38.88;96376.91;5077111;22;20035;-46
2021/04/28 04:33:57;;;;;;;8.95;6.28;;;8.70;46.50;;;9.25;38.88;96375.25;5032751;28;20056;-47
2021/04/28 04:36:43;;;;;;;10.93;6.90;;;8.60;46.60;;;9.22;39.12;96383.59;5052265;28;20043;-45
2021/04/28 04:39:32;;;;;;;11.30;6.33;;;8.60;46.80;;;9.20;38.96;96381.09;5026565;28;20065;-45
2021/04/28 04:42:18;;;;;;;12.77;6.13;;;8.60;47.00;;;9.15;39.50;96377.34;5051484;28;20391;-48
2021/04/28 04:44:48;;;;;;;10.67;6.57;;;8.50;47.30;;;9.17;38.93;96384.16;5047534;28;20068;-46
2021/04/28 04:47:16;;;;;;;14.20;7.77;;;8.60;47.30;;;9.19;39.29;96381.28;5048438;28;20067;-45
2021/04/28 04:49:44;;;;;;;10.37;6.90;;;8.60;47.30;;;9.20;39.63;96393.56;5047743;28;20057;-47
2021/04/28 04:52:12;;;;;;;12.60;7.07;;;8.60;47.20;;;9.23;39.68;96385.25;5063796;28;20045;-48
2021/04/28 04:54:40;;;;;;;7.63;6.17;;;8.60;47.60;;;9.24;39.33;96385.03;5048424;28;20049;-48
2021/04/28 04:57:08;;;;;;;11.03;7.03;;;8.70;47.30;;;9.25;39.66;96383.22;5048698;28;20059;-46
2021/04/28 04:59:36;;;;;;;10.23;7.20;;;8.80;47.20;;;9.27;39.91;96386.53;5047827;28;20277;-48
2021/04/28 05:02:04;;;;;;;9.70;6.60;;;8.80;47.50;;;9.30;39.65;96387.97;5048578;28;20053;-44
2021/04/28 05:04:33;;;;;;;14.97;7.30;;;8.80;47.30;;;9.32;39.60;96391.28;5048247;28;20504;-45
2021/04/28 05:07:01;;;;;;;14.47;7.63;;;8.80;47.30;;;9.32;39.58;96392.09;5046889;28;20586;-46
2021/04/28 05:09:29;;;;;;;11.33;7.20;;;8.80;47.70;;;9.33;40.09;96391.09;5049338;28;20260;-51
2021/04/28 05:11:57;;;;;;;14.30;8.37;;;8.80;47.60;;;9.35;39.94;96393.56;5047056;28;20071;-48
2021/04/28 05:14:25;;;;;;;13.03;8.13;;;8.90;47.70;;;9.40;39.98;96399.13;5047200;28;20063;-46
2021/04/28 05:16:53;;;;;;;8.27;6.33;;;8.90;47.60;;;9.42;40.12;96394.47;5047961;28;20075;-45
2021/04/28 05:19:21;;;;;;;10.43;6.73;;;8.90;47.50;;;9.46;40.33;96388.63;5048990;28;20074;-46
2021/04/28 05:21:49;;;;;;;8.87;6.07;;;9.10;47.40;;;9.51;40.19;96387.25;5047572;28;20361;-46
2021/04/28 05:24:17;;;;;;;8.77;6.27;;;9.20;47.40;;;9.58;40.38;96394.28;5048466;28;20055;-46
2021/04/28 05:27:11;;;;;;;10.23;7.00;;;9.30;47.00;;;9.66;40.19;96393.34;5046531;28;20067;-47
2021/04/28 05:29:39;;;;;;;11.47;6.47;;;9.40;46.80;;;9.72;39.91;96395.28;5046820;28;20059;-45
2021/04/28 05:32:07;;;;;;;13.63;7.53;;;9.40;46.90;;;9.75;40.37;96397.56;5046001;28;20048;-47
2021/04/28 05:34:37;;;;;;;11.70;6.47;;;9.50;47.20;;;9.79;40.30;96395.34;5047194;28;20220;-46
2021/04/28 05:37:05;;;;;;;12.40;6.07;;;9.50;47.10;;;9.83;40.00;96393.97;5045305;28;20049;-46
2021/04/28 05:39:33;;;;;;;12.43;6.67;;;9.50;47.00;;;9.87;40.27;96397.91;5046453;28;20047;-48
2021/04/28 05:42:01;;;;;;;14.67;7.27;;;9.60;46.90;;;9.93;40.00;96401.66;5045446;28;20059;-50
2021/04/28 05:44:30;;;;;;;13.77;7.50;;;9.70;46.70;;;9.97;40.12;96401.06;5047581;28;20063;-46
2021/04/28 05:46:58;;;;;;;15.17;6.90;;;9.70;46.60;;;10.02;40.30;96401.34;5045779;28;20071;-46
2021/04/28 05:49:26;;;;;;;17.57;8.13;;;9.80;46.70;;;10.07;40.11;96403.44;5046600;28;20049;-44
2021/04/28 05:51:54;;;;;;;10.63;7.00;;;9.80;46.70;;;10.12;40.02;96406.34;5045257;28;20055;-49
2021/04/28 05:54:23;;;;;;;15.93;7.27;;;9.90;46.80;;;10.14;40.46;96401.69;5046225;28;20249;-49
2021/04/28 05:56:52;;;;;;;14.70;7.33;;;10.00;46.80;;;10.20;40.28;96403.56;5048147;28;20045;-47
2021/04/28 05:59:20;;;;;;;14.23;7.10;;;10.00;46.80;;;10.28;40.35;96401.81;5044835;28;20053;-46
2021/04/28 06:01:47;;;;;;;12.60;7.77;;;10.10;46.80;;;10.34;40.25;96401.09;5047256;28;20063;-45
2021/04/28 06:04:16;;;;;;;13.60;6.20;;;10.10;46.70;;;10.39;40.05;96403.97;5045910;28;20052;-42
2021/04/28 06:06:46;;;;;;;14.87;6.93;;;10.20;46.60;;;10.44;40.09;96393.59;5045919;28;20060;-47
2021/04/28 06:09:16;;;;;;;14.10;8.17;;;10.30;46.70;;;10.43;40.51;96408.75;5043819;28;20068;-44
2021/04/28 06:11:45;;;;;;;12.57;7.40;;;10.40;46.50;;;10.51;40.31;96405.13;5046607;28;20368;-48
2021/04/28 06:14:13;;;;;;;11.10;6.97;;;10.40;46.40;;;10.58;39.89;96400.66;5045413;28;20063;-47
2021/04/28 06:16:42;;;;;;;15.07;9.97;;;10.50;46.40;;;10.65;39.99;96400.75;5046924;28;20045;-44
2021/04/28 06:19:10;;;;;;;13.73;6.93;;;10.60;46.10;;;10.70;39.81;96402.81;5046550;28;20048;-48
2021/04/28 06:21:38;;;;;;;10.70;7.63;;;10.60;46.00;;;10.77;39.74;96401.03;5047397;28;20051;-46
2021/04/28 06:24:08;;;;;;;10.70;7.07;;;10.70;46.00;;;10.82;39.79;96402.09;5047065;28;20045;-43
2021/04/28 06:26:41;;;;;;;11.57;6.90;;;10.70;46.00;;;10.88;39.86;96397.84;5046395;28;20059;-44
2021/04/28 06:29:09;;;;;;;10.90;7.63;;;10.80;46.10;;;10.94;39.95;96399.75;5046267;28;20055;-43
2021/04/28 06:31:36;;;;;;;9.33;7.33;;;10.90;46.30;;;10.99;39.90;96397.31;5048377;28;20045;-46
2021/04/28 06:34:05;;;;;;;13.97;7.93;;;10.90;46.50;;;11.06;40.09;96397.34;5045732;28;20061;-45
2021/04/28 06:36:33;;;;;;;14.73;7.93;;;11.00;46.40;;;11.11;40.03;96388.78;5045267;28;20032;-47
2021/04/28 06:39:04;;;;;;;12.17;7.37;;;11.00;46.30;;;11.16;40.06;96391.69;5045439;28;20071;-48
2021/04/28 06:41:32;;;;;;;14.20;7.97;;;11.10;46.50;;;11.23;40.21;96400.56;5046439;28;20045;-44
2021/04/28 06:44:00;;;;;;;15.73;8.27;;;11.10;46.30;;;11.27;40.45;96399.13;5044759;28;20127;-48
2021/04/28 06:46:28;;;;;;;13.73;8.10;;;11.20;46.60;;;11.31;40.26;96400.38;5045288;28;20219;-45
2021/04/28 06:48:56;;;;;;;15.65;7.88;;;11.30;46.60;;;11.37;40.22;96396.94;5045393;28;20346;-46
2021/04/28 06:51:23;;;;;;;13.27;8.27;;;11.30;46.40;;;11.42;40.11;96397.19;5047152;28;20053;-45
2021/04/28 06:53:59;;;;;;;13.73;8.20;;;11.40;46.20;;;11.47;40.15;96391.25;5045938;28;20045;-46
2021/04/28 06:56:28;;;;;;;11.77;7.90;;;11.40;47.00;;;11.54;40.28;96396.63;5046106;28;20048;-45
2021/04/28 06:58:56;;;;;;;14.20;8.17;;;11.50;46.20;;;11.59;40.18;96391.50;5044835;28;20044;-45
2021/04/28 07:01:24;;;;;;;14.40;8.40;;;11.60;45.90;;;11.66;39.91;96395.03;5046663;28;20049;-44
2021/04/28 07:03:54;;;;;;;14.70;8.27;;;11.60;45.60;;;11.70;39.76;96390.94;5044878;28;20041;-45
2021/04/28 07:06:22;;;;;;;12.33;8.17;;;11.70;45.90;;;11.76;39.99;96394.66;5045544;28;20057;-44
2021/04/28 07:08:50;;;;;;;16.42;8.15;;;11.80;45.80;;;11.80;39.62;96388.72;5045650;28;20246;-44
2021/04/28 07:11:18;;;;;;;16.63;8.47;;;11.80;45.60;;;11.85;40.04;96390.00;5044610;28;20065;-46
2021/04/28 07:13:46;;;;;;;19.63;9.23;;;11.80;45.60;;;11.91;39.64;96394.56;5045481;28;20048;-47
2021/04/28 07:16:14;;;;;;;14.13;8.82;;;11.90;45.70;;;11.95;39.75;96399.28;5044080;28;20048;-46
2021/04/28 07:18:42;;;;;;;15.32;8.15;;;12.00;45.80;;;12.00;40.51;96396.84;5042659;28;20368;-45
2021/04/28 07:21:11;;;;;;;19.00;8.18;;;12.00;46.20;;;12.07;39.87;96401.38;5045749;28;20352;-44
2021/04/28 07:23:40;;;;;;;14.43;7.68;;;12.10;46.20;;;12.12;40.34;96405.06;5046029;28;20753;-46
2021/04/28 07:26:09;;;;;;;21.75;9.65;;;12.20;46.40;;;12.18;40.45;96404.25;5043699;28;20048;-44
2021/04/28 07:28:37;;;;;;;15.70;7.97;;;12.20;46.20;;;12.23;39.92;96398.31;5045067;28;20141;-48
2021/04/28 07:31:06;;;;;;;14.77;9.20;;;12.20;46.20;;;12.28;40.45;96405.72;5045288;28;20056;-46
2021/04/28 07:33:34;;;;;;;17.40;9.32;;;12.30;46.20;;;12.33;40.38;96398.75;5044832;28;20071;-48
2021/04/28 07:36:02;;;;;;;15.23;8.43;;;12.40;46.30;;;12.42;40.59;96410.06;5045079;28;20065;-45
2021/04/28 07:38:30;;;;;;;15.52;9.15;;;12.50;46.50;;;12.48;40.57;96395.91;5045262;28;20056;-44
2021/04/28 07:40:58;;;;;;;15.43;8.05;;;12.60;46.50;;;12.56;40.51;96402.88;5046141;28;20045;-47
2021/04/28 07:43:27;;;;;;;17.13;8.55;;;12.60;46.50;;;12.62;40.51;96402.09;5045140;28;20052;-48
2021/04/28 07:45:57;;;;;;;15.75;8.52;;;12.70;46.60;;;12.68;40.42;96395.09;5043494;28;20338;-46
2021/04/28 07:48:26;;;;;;;14.88;8.80;;;12.70;46.40;;;12.74;40.60;96397.78;5043958;28;20067;-48
2021/04/28 07:50:55;;;;;;;18.58;8.38;;;12.80;46.70;;;12.82;40.24;96406.63;5046366;28;20049;-47
2021/04/28 07:53:23;;;;;;;17.10;8.73;;;12.80;46.40;;;12.86;40.49;96403.31;5045187;28;20047;-45
2021/04/28 07:55:51;;;;;;;16.65;9.55;;;12.90;46.50;;;12.92;40.87;96404.34;5043114;28;20047;-47
2021/04/28 07:58:19;;;;;;;18.42;9.75;;;12.90;46.80;;;12.99;40.60;96399.84;5043221;28;20056;-46
2021/04/28 08:00:47;;;;;;;11.85;8.60;;;13.00;46.60;;;13.07;40.41;96398.81;5041117;28;20052;-50
2021/04/28 08:03:15;;;;;;;16.52;9.18;;;13.10;46.60;;;13.16;40.07;96393.03;5043761;28;20254;-46
2021/04/28 08:05:43;;;;;;;14.70;9.65;;;13.20;46.30;;;13.24;40.03;96399.16;5044225;28;20203;-46
2021/04/28 08:08:11;;;;;;;14.10;7.95;;;13.30;46.40;;;13.32;40.18;96393.66;5042810;28;20255;-45
2021/04/28 08:10:40;;;;;;;14.48;8.60;;;13.40;46.10;;;13.37;39.97;96397.31;5039179;28;20087;-47
2021/04/28 08:13:10;;;;;;;18.63;10.15;;;13.50;45.90;;;13.44;39.88;96396.50;5040064;28;20052;-45
2021/04/28 08:15:40;;;;;;;17.98;10.23;;;13.50;46.00;;;13.53;39.97;96395.22;5040421;28;20237;-48
2021/04/28 08:18:08;;;;;;;13.52;10.02;;;13.60;46.00;;;13.61;39.71;96403.03;5041347;28;20233;-45
2021/04/28 08:20:38;;;;;;;19.70;9.38;;;13.70;46.00;;;13.66;39.61;96391.69;5043010;28;20049;-48
2021/04/28 08:23:06;;;;;;;15.68;9.30;;;13.70;45.70;;;13.73;39.89;96395.19;5044302;28;20052;-46
2021/04/28 08:25:34;;;;;;;15.68;9.85;;;13.80;45.50;;;13.79;39.50;96392.47;5043457;28;20045;-46
2021/04/28 08:28:04;;;;;;;16.27;9.45;;;13.90;45.70;;;13.91;39.46;96406.00;5044220;28;20098;-48
2021/04/28 08:30:32;;;;;;;12.55;8.88;;;14.00;45.20;;;13.96;39.10;96402.69;5044077;28;20067;-46
2021/04/28 08:33:13;;;;;;;16.17;9.43;;;14.10;44.50;;;13.98;38.80;96401.44;5041661;28;20774;-45
2021/04/28 08:35:42;;;;;;;16.65;10.05;;;14.10;44.70;;;14.07;38.82;96395.84;5042879;28;20053;-48
2021/04/28 08:38:10;;;;;;;20.85;9.93;;;14.10;44.90;;;14.12;38.63;96398.69;5042157;28;20293;-45
2021/04/28 08:40:39;;;;;;;16.92;9.88;;;14.20;44.60;;;14.19;38.93;96399.50;5044718;28;20249;-45
2021/04/28 08:43:07;;;;;;;16.05;8.98;;;14.30;44.50;;;14.24;38.43;96390.81;5043693;28;20041;-47
2021/04/28 08:45:35;;;;;;;14.02;9.55;;;14.30;44.20;;;14.26;38.49;96389.56;5043611;28;20051;-44
2021/04/28 08:48:03;;;;;;;18.83;10.23;;;14.40;44.20;;;14.31;39.00;96397.78;5045557;28;20057;-45
2021/04/28 08:50:31;;;;;;;20.00;11.15;;;14.40;44.60;;;14.41;38.74;96393.81;5044253;28;20059;-44
2021/04/28 08:53:00;;;;;;;16.65;10.43;;;14.60;44.50;;;14.46;38.71;96381.41;5044974;28;20057;-47
2021/04/28 08:55:28;;;;;;;17.60;10.25;;;14.60;44.70;;;14.56;38.94;96383.63;5044828;28;20056;-46
2021/04/28 08:57:57;;;;;;;24.70;9.55;;;14.70;45.00;;;14.65;39.23;96385.00;5045241;28;20041;-44
2021/04/28 09:00:25;;;;;;;17.52;9.68;;;14.80;45.20;;;14.73;38.99;96381.22;5045283;28;20273;-45
2021/04/28 09:03:01;;;;;;;14.00;9.25;;;14.80;44.70;;;14.77;38.67;96379.75;5040612;28;20351;-47
2021/04/28 09:05:32;;;;;;;16.48;10.23;;;14.90;44.30;;;14.82;38.48;96371.88;5043432;28;20053;-48
2021/04/28 09:08:07;;;;;;;17.52;10.05;;;15.00;44.30;;;14.91;38.58;96378.63;5043461;28;20055;-45
2021/04/28 09:10:37;;;;;;;20.52;10.15;;;15.10;44.10;;;15.01;38.23;96380.78;5043416;28;20061;-45
2021/04/28 09:13:18;;;;;;;17.55;10.07;;;15.20;43.80;;;15.05;37.90;96378.50;5045117;28;20049;-47
2021/04/28 09:15:50;;;;;;;13.88;9.45;;;15.30;43.40;;;15.10;38.10;96379.47;5047395;28;20048;-47
2021/04/28 09:18:33;;;;;;;20.98;10.13;;;15.30;43.40;;;15.16;37.57;96375.91;5045327;28;20096;-46
2021/04/28 09:21:57;;;;;;;15.25;9.48;;;15.30;43.10;;;15.22;37.46;96374.22;5047660;28;20037;-46
2021/04/28 09:24:53;;;;;;;12.60;8.57;;;15.40;42.00;;;15.27;37.32;96370.84;5048591;28;20055;-47
2021/04/28 09:27:53;;;;;;;19.85;10.73;;;15.50;41.80;;;15.32;36.81;96363.78;5044696;28;20060;-46
2021/04/28 09:30:41;;;;;;;17.08;9.80;;;15.50;42.00;;;15.36;36.70;96372.22;5046325;28;20258;-46
2021/04/28 09:33:10;;;;;;;15.32;9.98;;;15.50;41.80;;;15.39;36.77;96371.75;5046950;28;20067;-46
2021/04/28 09:35:39;;;;;;;19.92;10.30;;;15.50;42.10;;;15.46;37.17;96371.69;5047256;28;20041;-45
2021/04/28 09:38:07;;;;;;;16.05;10.38;;;15.60;42.60;;;15.54;37.10;96371.38;5047293;28;20045;-46
2021/04/28 09:40:46;;;;;;;18.42;10.48;;;15.70;42.50;;;15.62;36.18;96360.34;5045656;28;20263;-47
2021/04/28 09:43:15;;;;;;;14.10;8.57;;;15.80;41.20;;;15.71;36.40;96368.94;5045506;28;20053;-45
2021/04/28 09:45:51;;;;;;;14.20;8.55;;;15.80;41.10;;;15.75;34.91;96364.78;5047091;28;20080;-45
2021/04/28 09:48:22;;;;;;;15.70;7.80;;;16.00;37.80;;;15.81;34.33;96358.50;5047768;28;20057;-45
2021/04/28 09:51:09;;;;;;;17.25;8.05;;;16.10;38.60;;;15.80;32.47;96356.88;5058454;28;20059;-49
2021/04/28 09:53:37;;;;;;;11.95;8.60;;;16.20;36.00;;;15.82;34.40;96362.00;5062970;28;20060;-46
2021/04/28 09:56:17;;;;;;;14.10;9.23;;;16.10;38.10;;;15.83;33.48;96355.59;5062704;28;20049;-45
2021/04/28 09:58:53;;;;;;;16.60;8.52;;;16.30;36.70;;;15.89;33.98;96357.38;5059853;28;20335;-47
2021/04/28 10:01:40;;;;;;;13.63;9.40;;;16.20;38.00;;;15.98;34.04;96360.59;5048181;28;20212;-47
2021/04/28 10:04:10;;;;;;;13.80;9.05;;;16.20;37.60;;;16.03;34.16;96350.81;5048380;28;20045;-46
2021/04/28 10:06:49;;;;;;;14.82;9.02;;;16.20;38.40;;;16.09;33.17;96349.06;5028920;28;20570;-44
2021/04/28 10:09:38;;;;;;;11.65;8.40;;;16.30;37.60;;;16.19;33.65;96356.56;5044672;28;20361;-44
2021/04/28 10:12:11;;;;;;;16.80;9.10;;;16.40;37.50;;;16.22;34.14;96351.56;5043758;28;20048;-47
2021/04/28 10:14:39;;;;;;;17.00;9.10;;;16.40;38.50;;;16.30;33.70;96347.72;5044947;28;20051;-45
2021/04/28 10:17:10;;;;;;;15.35;7.63;;;16.50;38.10;;;16.36;33.74;96352.19;5047264;28;20330;-49
2021/04/28 10:19:39;;;;;;;15.73;9.32;;;16.50;38.20;;;16.42;33.50;96353.97;5048087;28;20041;-48
2021/04/28 10:22:11;;;;;;;12.27;8.77;;;16.60;38.00;;;16.49;33.10;96351.97;5045089;28;20114;-48
2021/04/28 10:24:42;;;;;;;17.30;9.80;;;16.70;37.40;;;16.51;32.96;96349.06;5045182;28;20041;-46
2021/04/28 10:27:12;;;;;;;13.20;8.65;;;16.80;37.00;;;16.56;32.27;96348.41;5030155;28;20070;-46
2021/04/28 10:29:41;;;;;;;15.35;9.18;;;16.90;36.10;;;16.66;32.63;96348.66;5043798;28;20051;-45
2021/04/28 10:32:13;;;;;;;17.70;9.32;;;17.00;36.80;;;16.71;32.40;96344.22;5046928;28;20573;-49
2021/04/28 10:35:02;;;;;;;14.93;8.40;;;17.00;36.30;;;16.74;32.24;96348.31;5060790;28;20374;-49
2021/04/28 10:37:34;;;;;;;13.00;8.68;;;17.00;35.30;;;16.77;32.58;96349.69;5045766;28;20037;-47
2021/04/28 10:40:14;;;;;;;14.15;8.32;;;17.00;37.40;;;16.85;31.16;96338.66;5045394;28;20041;-48